Meteo Giornale » Osservazioni meteo Francia » Salon
ore: 17:00 - Osservazioni Meteo Salon
Lat. 43° 36' N Lon. 5° 6' E Alt. 59 metri s.l.m.
32 °C
Sereno
Temp. 24 Ore
20 °C
32 °C
Ovest/Nord-Ovest
11.1 Km/h
Dew point 12 °C
Umidità 29 %
Visibilità 10 Km
Il sole sorge alle ore 07:03
Il sole tramonta alle ore 20:15
| Data e Ora | Cielo e Fenomeni | T °C | DP °C | Um. % | Pres. hPa | Vis. km | Vento km/h | |
|---|---|---|---|---|---|---|---|---|
| Oggi h: 17:00 | Sereno | 32 | 12 | 29 | 1016 | 10 | O/NO 11.1 | |
| Oggi h: 16:30 | Sereno | 32 | 10 | 25 | 1016 | 10 | N/NO 16.7 | |
| Oggi h: 16:00 | Sereno | 32 | 12 | 29 | 1017 | 10 | N/NO 20.3 | |
| Oggi h: 15:30 | Sereno | 32 | 11 | 27 | 1017 | 10 | NO 13 | |
| Oggi h: 15:00 | Sereno | 31 | 12 | 31 | 1017 | 10 | NO 16.7 | |
| Oggi h: 14:30 | Sereno | 31 | 13 | 33 | 1018 | 10 | O/NO 11.1 | |
| Oggi h: 14:00 | Sereno | 30 | 12 | 33 | 1018 | 10 | N/NO 13 | |
| Oggi h: 13:30 | Sereno | 29 | 13 | 37 | 1018 | 10 | NO 11.1 | |
| Oggi h: 13:00 | Sereno | 29 | 14 | 39 | 1018 | 10 | N 13 | |
| Oggi h: 12:30 | Sereno | 28 | 13 | 39 | 1018 | 10 | N/NO 14.8 | |
| Oggi h: 12:00 | Sereno | 27 | 13 | 42 | 1019 | 10 | N 16.7 | |
| Oggi h: 11:30 | Sereno | 27 | 13 | 42 | 1019 | 10 | N/NO 18.5 | |
| Oggi h: 11:00 | Sereno | 25 | 13 | 47 | 1019 | 10 | N/NO 14.8 | |
| Oggi h: 10:30 | Sereno | 24 | 13 | 50 | 1019 | 10 | N 13 | |
| Oggi h: 10:00 | Sereno | 23 | 13 | 53 | 1019 | 10 | N/NO 20.3 | |
| Oggi h: 09:30 | Sereno | 22 | 12 | 53 | 1018 | 10 | N/NO 20.3 | |
| Oggi h: 09:00 | Sereno | 21 | 12 | 56 | 1018 | 10 | N/NO 18.5 | |
| Oggi h: 08:30 | Sereno | 21 | 12 | 56 | 1018 | 10 | N 20.3 | |
| Oggi h: 08:00 | Sereno | 20 | 12 | 59 | 1018 | 10 | N/NO 11.1 | |
| Oggi h: 07:30 | Sereno | 20 | 12 | 59 | 1018 | 10 | N 14.8 | |
| Oggi h: 07:00 | Sereno | 20 | 12 | 59 | 1018 | 10 | N 18.5 | |
| Oggi h: 06:30 | Sereno | 20 | 12 | 59 | 1018 | 10 | N/NO 14.8 | |
| Oggi h: 06:00 | Sereno | 21 | 11 | 52 | 1018 | 10 | N 11.1 | |
| Oggi h: 05:30 | Sereno | 21 | 12 | 56 | 1018 | 10 | N 14.8 | |
| Oggi h: 05:00 | Sereno | 21 | 12 | 56 | 1018 | 10 | N 14.8 | |
| Oggi h: 04:30 | Sereno | 22 | 12 | 53 | 1018 | 10 | N/NO 13 | |
| Oggi h: 04:00 | Sereno | 22 | 12 | 53 | 1018 | 10 | N/NO 14.8 | |
| Oggi h: 03:30 | Sereno | 23 | 12 | 49 | 1018 | 10 | N/NO 14.8 | |
| Oggi h: 03:00 | Sereno | 22 | 12 | 53 | 1018 | 10 | N 5.5 | |
| Oggi h: 02:30 | Sereno | 23 | 12 | 49 | 1018 | 10 | N/NO 14.8 | |
| Oggi h: 02:00 | Sereno | 23 | 12 | 49 | 1018 | 10 | N/NO 18.5 | |
| Oggi h: 01:30 | Sereno | 24 | 12 | 47 | 1018 | 10 | N 7.4 | |
| Oggi h: 01:00 | Sereno | 23 | 12 | 49 | 1018 | 10 | O/NO 7.4 | |
| Oggi h: 00:30 | Sereno | 24 | 12 | 47 | 1018 | 10 | N 5.5 | |
| Oggi h: 00:00 | Sereno | 24 | 12 | 47 | 1018 | 10 | N 5.5 | |
| Ieri h: 23:30 | Sereno | 24 | 12 | 47 | 1018 | 10 | N 3.7 | |
| Ieri h: 23:00 | Sereno | 24 | 13 | 50 | 1017 | 10 | N 1.8 | |
| Ieri h: 22:30 | Sereno | 22 | 16 | 68 | 1017 | 10 | N 3.7 | |
| Ieri h: 22:00 | Sereno | 23 | 18 | 73 | 1017 | 10 | N 1.8 | |
| Ieri h: 21:30 | Sereno | 24 | 17 | 64 | 1017 | 10 | N 0 | |
| Ieri h: 21:00 | Sereno | 25 | 17 | 61 | 1017 | 10 | N 5.5 | |
| Ieri h: 20:30 | Sereno | 27 | 17 | 54 | 1016 | 10 | N 5.5 | |
| Ieri h: 20:00 | Sereno | 28 | 18 | 54 | 1016 | 10 | O/SO 9.3 | |
| Ieri h: 19:30 | Sereno | 30 | 18 | 48 | 1016 | 10 | O 11.1 | |
| Ieri h: 19:00 | Sereno | 30 | 18 | 48 | 1016 | 10 | O 9.3 | |
| Ieri h: 18:30 | Sereno | 31 | 18 | 45 | 1016 | 10 | O/NO 9.3 | |
| Ieri h: 18:00 | Sereno | 32 | 16 | 38 | 1016 | 10 | N/NO 14.8 | |



